Terminal Aerodrome Forecast
Issued by NWS Twin Cities, MN

Home | Current Version | Previous Version | Graphics & Text | Print | Product List | Glossary On
Versions: 1 2 3 4 5 6 7 8 9 10 11 12 13 14 15 16 17 18
000
FTUS43 KMPX 011120
TAFSTC
TAF
KSTC 011120Z 0112/0212 12003KT P6SM VCSH BKN120
     FM011700 15007KT P6SM SCT050 BKN100 OVC200
     FM020000 14006KT P6SM BKN200=

USA.gov is the U.S. government's official web portal to all federal, state and local government web resources and services.